Turnhout, Belgium
Current Conditions -  °F | °C
As of 9:55 AM on Thursday 23 Oct 2014 (Local Time) from EHGR Reporting Station
Overcast Overcast  
Wind Chill: 11°   Ceiling: 2800
Heat Index: 11°   Visibility: 6mi
Dew Point:   Wind: 7mph
Humidity: 88%   Direction: 210°SSW
Pressure: 30.18"   Gusts: NA
Location:  51.32°N, 4.94°E
Report Text: EHGR 230755Z AUTO 21006KT 9999 OVC028 11/09 Q1022 BLU 21007KT 9999 BKN025
Loading
Personal Weather Stations






























Interactive Weather Map
Tropical Storm Tracking
New forecast layout! Learn more

10-Day Weather Forecast

Advertisements
Track Severe Weather on mobile